Terminal Aerodrome Forecast
Issued by NWS Sterling, VA

Current Version | Previous Version | Graphics & Text | Print | Product List | Glossary On
Versions: 1 2 3 4 5 6 7 8 9 10 11 12 13 14 15 16 17 18 19 20 21
000
FTUS41 KLWX 252100 AAA
TAFDCA
TAF AMD
KDCA 252101Z 2521/2618 02004KT P6SM SCT150 BKN250
     FM260500 02004KT P6SM -RA OVC090
     FM261000 03008KT P6SM -RA OVC040
     FM261200 03009KT 5SM RA OVC015
     FM261300 03010KT 5SM RA OVC008
     FM261700 03010KT 1SM RASN OVC003=

USA.gov is the U.S. government's official web portal to all federal, state and local government web resources and services.